Time;durP1;ratioP1;P1;durP2;ratioP2;P2;SDS_P1;SDS_P2;PMS_P1;PMS_P2;Temp;Humidity;BMP_temperature;BMP_pressure;BME280_temperature;BME280_humidity;BME280_pressure;Samples;Min_cycle;Max_cycle;Signal;HPM_P1;HPM_P2
2021/12/06 07:02:31;;;;;;;13.57;2.50;;;6.90;99.90;;;;;;5016267;23;20545;-83
2021/12/06 07:04:59;;;;;;;14.57;2.60;;;6.90;99.90;;;;;;4955653;28;20046;-84
2021/12/06 07:07:26;;;;;;;14.70;1.90;;;6.90;99.90;;;;;;4969972;28;20042;-85
2021/12/06 07:09:52;;;;;;;12.77;1.88;;;7.00;99.90;;;;;;4974504;28;20042;-85
2021/12/06 07:12:20;;;;;;;16.70;2.30;;;7.00;99.90;;;;;;4958665;28;20467;-85
2021/12/06 07:14:47;;;;;;;15.82;2.72;;;7.00;99.90;;;;;;4984687;28;20046;-84
2021/12/06 07:17:15;;;;;;;12.30;2.30;;;7.10;99.90;;;;;;4985355;28;20050;-85
2021/12/06 07:19:43;;;;;;;12.38;2.28;;;7.10;99.90;;;;;;4971313;28;20088;-84
2021/12/06 07:22:10;;;;;;;12.02;3.28;;;7.10;99.90;;;;;;4968499;28;20042;-85
2021/12/06 07:24:38;;;;;;;15.25;3.92;;;7.10;99.90;;;;;;4983531;28;20046;-86
2021/12/06 07:27:05;;;;;;;17.25;4.72;;;7.10;99.90;;;;;;4982180;28;20050;-86
2021/12/06 07:29:35;;;;;;;14.98;4.28;;;7.10;99.90;;;;;;4967362;28;20050;-86
2021/12/06 07:32:05;;;;;;;17.95;5.25;;;7.20;99.90;;;;;;4973566;28;20051;-86
2021/12/06 07:34:35;;;;;;;14.15;4.20;;;7.20;99.90;;;;;;4971379;28;20050;-87
2021/12/06 07:37:02;;;;;;;16.73;4.38;;;7.20;99.90;;;;;;4985225;28;20112;-86
2021/12/06 07:39:30;;;;;;;10.77;3.43;;;7.20;99.90;;;;;;4955147;28;20117;-86
2021/12/06 07:41:57;;;;;;;10.60;2.88;;;7.20;99.90;;;;;;4975701;28;20105;-86
2021/12/06 07:44:24;;;;;;;14.90;3.13;;;7.30;99.90;;;;;;4957068;28;20046;-86
2021/12/06 07:46:52;;;;;;;14.30;3.75;;;7.30;99.90;;;;;;4954734;28;20047;-85
2021/12/06 07:49:21;;;;;;;15.27;3.78;;;7.40;99.90;;;;;;4971292;28;20079;-85
2021/12/06 07:51:49;;;;;;;10.50;3.40;;;7.40;99.90;;;;;;4969222;28;20038;-85
2021/12/06 07:54:16;;;;;;;17.90;4.38;;;7.50;99.90;;;;;;4964721;28;20454;-84
2021/12/06 07:56:43;;;;;;;11.13;3.80;;;7.60;99.90;;;;;;4975354;28;20101;-83
2021/12/06 07:59:13;;;;;;;9.10;4.30;;;7.60;99.90;;;;;;4956392;28;20443;-86
2021/12/06 08:01:41;;;;;;;10.05;4.70;;;7.70;99.90;;;;;;4977488;28;20491;-84
2021/12/06 08:04:08;;;;;;;14.13;4.82;;;7.80;99.90;;;;;;4964707;28;20057;-85
2021/12/06 08:06:37;;;;;;;9.70;4.63;;;7.80;99.90;;;;;;4959370;28;20050;-84
2021/12/06 08:09:06;;;;;;;16.35;5.50;;;7.90;99.90;;;;;;4973479;28;20046;-84
2021/12/06 08:11:33;;;;;;;10.63;4.95;;;7.90;99.90;;;;;;4974524;28;20149;-84
2021/12/06 08:14:02;;;;;;;14.48;4.80;;;8.00;99.90;;;;;;4963572;28;20055;-84
2021/12/06 08:16:33;;;;;;;15.23;5.55;;;8.10;99.90;;;;;;4981773;28;20042;-83
2021/12/06 08:19:00;;;;;;;17.17;6.07;;;8.10;99.90;;;;;;4962234;28;20138;-84
2021/12/06 08:21:28;;;;;;;18.77;5.13;;;8.20;99.90;;;;;;4978612;28;20095;-83
2021/12/06 08:23:57;;;;;;;11.88;5.47;;;8.20;99.90;;;;;;4961687;28;20064;-83
2021/12/06 08:26:28;;;;;;;16.40;5.60;;;8.30;99.90;;;;;;4982615;28;20050;-84
2021/12/06 08:28:57;;;;;;;9.98;4.93;;;8.30;99.90;;;;;;4965700;28;20039;-83
2021/12/06 08:31:27;;;;;;;12.15;4.80;;;8.30;99.90;;;;;;4978624;28;20452;-82
2021/12/06 08:33:55;;;;;;;10.38;4.05;;;8.40;99.90;;;;;;4978020;28;20109;-83
2021/12/06 08:36:22;;;;;;;19.38;4.20;;;8.40;99.90;;;;;;4981988;28;20053;-84
2021/12/06 08:38:50;;;;;;;21.03;4.73;;;8.50;99.90;;;;;;4972094;28;20431;-83
2021/12/06 08:41:23;;;;;;;7.97;3.13;;;8.50;99.90;;;;;;4978711;28;20047;-83
2021/12/06 08:43:51;;;;;;;5.80;3.10;;;8.60;99.90;;;;;;4990626;28;20053;-83
2021/12/06 08:46:31;;;;;;;8.45;3.13;;;8.70;99.90;;;;;;4973626;28;20511;-84
2021/12/06 08:49:00;;;;;;;5.95;2.75;;;8.70;99.90;;;;;;4973817;28;20052;-84
2021/12/06 08:51:34;;;;;;;4.18;2.60;;;8.80;99.90;;;;;;4971987;28;20518;-84
2021/12/06 08:54:02;;;;;;;5.47;2.13;;;8.80;99.90;;;;;;4974262;28;20200;-85
2021/12/06 08:56:31;;;;;;;2.20;1.50;;;8.90;99.90;;;;;;4977893;28;20069;-84
2021/12/06 08:58:58;;;;;;;4.15;1.70;;;8.90;99.90;;;;;;4978458;28;20106;-84
2021/12/06 09:01:26;;;;;;;2.10;1.60;;;9.00;99.90;;;;;;4974321;28;20046;-85
2021/12/06 09:04:14;;;;;;;2.47;1.20;;;9.00;99.90;;;;;;4973710;28;20491;-84
2021/12/06 09:06:45;;;;;;;1.60;0.90;;;9.10;99.90;;;;;;4974082;28;20066;-85
2021/12/06 09:09:13;;;;;;;0.70;0.68;;;9.10;99.90;;;;;;4972607;28;20101;-86
2021/12/06 09:11:44;;;;;;;2.20;0.80;;;9.20;99.90;;;;;;4959593;28;20054;-86
2021/12/06 09:14:12;;;;;;;1.88;0.70;;;9.30;99.90;;;;;;4960356;28;20149;-85
2021/12/06 09:16:39;;;;;;;0.57;0.57;;;9.30;99.90;;;;;;4959123;28;20570;-86
2021/12/06 09:19:09;;;;;;;1.20;0.50;;;9.40;99.90;;;;;;4974090;28;20051;-86
2021/12/06 09:21:37;;;;;;;2.50;0.60;;;9.50;99.90;;;;;;4974120;28;20163;-86
2021/12/06 09:24:10;;;;;;;0.40;0.35;;;9.50;99.90;;;;;;4957019;28;20113;-84
2021/12/06 09:26:37;;;;;;;1.67;0.40;;;9.60;99.90;;;;;;4973787;28;20046;-86
2021/12/06 09:29:05;;;;;;;0.50;0.40;;;9.70;99.90;;;;;;4958337;28;20070;-87
2021/12/06 09:31:33;;;;;;;0.68;0.50;;;9.70;99.90;;;;;;4973264;28;20068;-85
2021/12/06 09:34:00;;;;;;;0.60;0.50;;;9.80;99.90;;;;;;4992536;28;20582;-86
2021/12/06 09:36:27;;;;;;;0.80;0.40;;;9.80;99.90;;;;;;4974901;28;20046;-86
2021/12/06 09:38:54;;;;;;;1.55;0.50;;;9.90;99.90;;;;;;4957060;28;20050;-85
2021/12/06 09:41:26;;;;;;;1.95;0.50;;;9.90;99.90;;;;;;4956355;28;20050;-85
2021/12/06 09:43:59;;;;;;;3.10;0.70;;;10.00;99.90;;;;;;4977004;28;20047;-86
2021/12/06 09:46:28;;;;;;;3.88;1.10;;;10.00;99.90;;;;;;4973857;28;20042;-85
2021/12/06 09:48:56;;;;;;;2.50;0.80;;;10.10;99.90;;;;;;4973732;28;20130;-85
2021/12/06 09:51:26;;;;;;;3.15;0.90;;;10.10;99.90;;;;;;4981023;28;20133;-87
2021/12/06 09:53:55;;;;;;;4.65;1.30;;;10.20;99.90;;;;;;4978677;28;20573;-86
2021/12/06 09:56:29;;;;;;;2.00;0.50;;;10.20;99.90;;;;;;4982963;28;20062;-85
2021/12/06 09:58:59;;;;;;;6.85;2.83;;;10.30;99.90;;;;;;4956627;28;20051;-85
2021/12/06 10:01:30;;;;;;;6.22;2.20;;;10.30;99.90;;;;;;4971992;28;20038;-84
2021/12/06 10:03:59;;;;;;;6.65;1.83;;;10.30;99.90;;;;;;4972553;28;20051;-84
2021/12/06 10:06:28;;;;;;;3.35;1.20;;;10.30;99.90;;;;;;4982087;28;20047;-84
2021/12/06 10:08:58;;;;;;;2.10;0.70;;;10.30;99.90;;;;;;4983392;28;20046;-83
2021/12/06 10:11:30;;;;;;;2.47;0.93;;;10.40;99.90;;;;;;4981290;28;20101;-84
2021/12/06 10:13:58;;;;;;;2.30;0.70;;;10.40;99.90;;;;;;4975613;28;20506;-83
2021/12/06 10:16:25;;;;;;;0.35;0.20;;;10.50;99.90;;;;;;4973180;28;20047;-82
2021/12/06 10:18:53;;;;;;;1.65;0.40;;;10.60;99.90;;;;;;4976207;28;20094;-82
2021/12/06 10:21:23;;;;;;;2.45;0.73;;;10.70;99.90;;;;;;4971745;28;20059;-81
2021/12/06 10:23:51;;;;;;;1.35;0.55;;;10.80;99.90;;;;;;4976013;28;20054;-83
2021/12/06 10:26:23;;;;;;;4.53;0.93;;;10.80;99.90;;;;;;4986025;28;20109;-84
2021/12/06 10:29:08;;;;;;;4.97;1.13;;;10.90;99.90;;;;;;4972687;28;20508;-83
2021/12/06 10:31:43;;;;;;;3.83;0.80;;;10.90;99.90;;;;;;4988757;28;20047;-83
2021/12/06 10:34:15;;;;;;;10.88;1.10;;;11.00;99.90;;;;;;4986028;28;20062;-82
2021/12/06 10:36:42;;;;;;;2.63;0.80;;;11.10;99.90;;;;;;4982161;28;20298;-82
2021/12/06 10:39:09;;;;;;;6.38;1.00;;;11.20;99.90;;;;;;4979808;28;20101;-83
2021/12/06 10:41:38;;;;;;;11.50;1.55;;;11.20;99.90;;;;;;4976561;28;20459;-83
2021/12/06 10:44:09;;;;;;;6.00;1.23;;;11.30;99.90;;;;;;4984879;28;20109;-82
2021/12/06 10:46:40;;;;;;;4.97;1.33;;;11.40;99.90;;;;;;4986749;28;20097;-82
2021/12/06 10:49:11;;;;;;;5.40;0.80;;;11.50;99.90;;;;;;4989032;28;20114;-83
2021/12/06 10:51:39;;;;;;;7.32;1.52;;;11.70;99.90;;;;;;4983467;28;20050;-83
2021/12/06 10:54:16;;;;;;;4.70;1.02;;;11.80;99.90;;;;;;4982897;28;20121;-82
2021/12/06 10:56:45;;;;;;;6.57;1.17;;;11.80;99.90;;;;;;4984827;28;20058;-82
2021/12/06 10:59:26;;;;;;;10.23;1.75;;;11.90;99.90;;;;;;4984956;28;20046;-81
2021/12/06 11:02:09;;;;;;;12.85;2.20;;;12.00;99.90;;;;;;4973702;28;20097;-82
2021/12/06 11:04:38;;;;;;;29.85;2.92;;;12.10;99.90;;;;;;4986355;28;20043;-82
2021/12/06 11:07:05;;;;;;;39.08;4.13;;;12.00;99.90;;;;;;4989206;28;20093;-81
2021/12/06 11:09:38;;;;;;;43.92;4.38;;;11.90;99.90;;;;;;4958899;28;20097;-83
2021/12/06 11:12:07;;;;;;;44.90;5.25;;;11.80;99.90;;;;;;4976459;28;20046;-83
2021/12/06 11:14:41;;;;;;;57.08;6.90;;;11.70;99.90;;;;;;4985022;28;20443;-83
2021/12/06 11:17:10;;;;;;;51.97;6.53;;;11.60;99.90;;;;;;4973663;28;20042;-82
2021/12/06 11:19:38;;;;;;;53.00;6.35;;;11.50;99.90;;;;;;4986944;28;20050;-82
2021/12/06 11:22:19;;;;;;;67.18;7.95;;;11.50;99.90;;;;;;4974177;28;20088;-81
2021/12/06 11:24:51;;;;;;;68.68;7.47;;;11.40;99.90;;;;;;4969964;28;20574;-82
2021/12/06 11:27:24;;;;;;;69.40;8.27;;;11.40;99.90;;;;;;4977792;28;20098;-83
2021/12/06 11:30:02;;;;;;;59.78;7.57;;;11.40;99.90;;;;;;4983531;28;20046;-82
2021/12/06 11:32:33;;;;;;;61.50;8.45;;;11.50;99.90;;;;;;4980240;28;20101;-81
2021/12/06 11:35:11;;;;;;;62.40;7.38;;;11.40;99.90;;;;;;4972219;28;20042;-82
2021/12/06 11:37:47;;;;;;;55.45;6.75;;;11.40;99.90;;;;;;4986271;28;20187;-81
2021/12/06 11:40:27;;;;;;;69.63;8.73;;;11.40;99.90;;;;;;4968347;28;20042;-82
2021/12/06 11:43:00;;;;;;;66.15;7.45;;;11.40;99.90;;;;;;4981168;28;20055;-82
2021/12/06 11:45:48;;;;;;;64.05;6.93;;;11.40;99.90;;;;;;4977593;28;20039;-81
2021/12/06 11:48:16;;;;;;;58.13;8.00;;;11.40;99.90;;;;;;4969135;28;20050;-82
2021/12/06 11:51:08;;;;;;;46.70;7.05;;;11.40;99.90;;;;;;4984639;28;20110;-80
2021/12/06 11:53:52;;;;;;;52.90;6.72;;;11.40;99.90;;;;;;4976922;28;20128;-80
2021/12/06 11:56:23;;;;;;;61.80;8.70;;;11.40;99.90;;;;;;4975075;28;20105;-80
2021/12/06 11:58:57;;;;;;;48.10;7.38;;;11.50;99.90;;;;;;4976696;28;20186;-81
2021/12/06 12:01:24;;;;;;;63.97;7.47;;;11.50;99.90;;;;;;4984987;28;21528;-81
2021/12/06 12:03:57;;;;;;;47.65;6.30;;;11.50;99.90;;;;;;4977750;28;20058;-82
2021/12/06 12:06:33;;;;;;;61.55;7.38;;;11.50;99.90;;;;;;4961921;28;20054;-81
2021/12/06 12:09:28;;;;;;;63.72;7.70;;;11.60;99.90;;;;;;4978978;28;20533;-80
2021/12/06 12:11:59;;;;;;;55.00;6.70;;;11.60;99.90;;;;;;4982154;28;20086;-82
2021/12/06 12:15:04;;;;;;;56.03;8.05;;;11.60;99.90;;;;;;4972831;28;20050;-82
2021/12/06 12:17:34;;;;;;;61.75;7.55;;;11.50;99.90;;;;;;4889721;29;20049;-80
2021/12/06 12:20:05;;;;;;;56.92;7.78;;;11.50;99.90;;;;;;4890609;29;20498;-81
2021/12/06 12:22:33;;;;;;;57.97;7.32;;;11.50;99.90;;;;;;4874701;29;20052;-81
2021/12/06 12:25:07;;;;;;;55.30;7.05;;;11.50;99.90;;;;;;4881316;29;20053;-82
2021/12/06 12:30:04;;;;;;;64.22;9.93;;;11.60;99.90;;;;;;4893798;29;20100;-81
2021/12/06 12:32:31;;;;;;;49.97;6.97;;;11.60;99.90;;;;;;4893256;29;20128;-82
2021/12/06 12:35:03;;;;;;;60.03;9.35;;;11.60;99.90;;;;;;4893641;29;20048;-80
2021/12/06 12:37:36;;;;;;;68.93;9.10;;;11.60;99.90;;;;;;4893650;29;20141;-81
2021/12/06 12:40:13;;;;;;;66.57;9.38;;;11.60;99.90;;;;;;4878943;29;20127;-81
2021/12/06 12:43:00;;;;;;;45.97;8.02;;;11.70;99.90;;;;;;4883217;29;20093;-82
2021/12/06 12:45:43;;;;;;;57.70;7.63;;;11.70;99.90;;;;;;4882171;29;20045;-81
2021/12/06 12:48:11;;;;;;;63.50;9.32;;;11.70;99.90;;;;;;4889228;29;20080;-82
2021/12/06 12:50:39;;;;;;;71.55;8.43;;;11.70;99.90;;;;;;4893941;29;20071;-81
2021/12/06 12:53:10;;;;;;;53.83;7.30;;;11.70;99.90;;;;;;4935896;28;20089;-81
2021/12/06 12:55:44;;;;;;;67.07;10.02;;;11.70;99.90;;;;;;4990292;28;20051;-82
2021/12/06 12:58:17;;;;;;;53.67;9.63;;;11.70;99.90;;;;;;4976674;28;20105;-82
2021/12/06 13:00:52;;;;;;;62.70;10.32;;;11.70;99.90;;;;;;4985675;28;20043;-83
2021/12/06 13:03:40;;;;;;;72.82;9.85;;;11.70;99.90;;;;;;4978776;28;20046;-81
2021/12/06 13:06:23;;;;;;;58.03;8.05;;;11.70;99.90;;;;;;4974064;28;20043;-81
2021/12/06 13:08:55;;;;;;;52.50;7.88;;;11.80;99.90;;;;;;4974439;28;20047;-82
2021/12/06 13:11:48;;;;;;;62.00;8.98;;;11.80;99.90;;;;;;4977348;28;20046;-82
2021/12/06 13:14:29;;;;;;;54.35;7.47;;;11.80;99.90;;;;;;4976066;28;20108;-82
2021/12/06 13:17:02;;;;;;;64.75;8.43;;;11.80;99.90;;;;;;4975440;28;20058;-81
2021/12/06 13:20:06;;;;;;;58.92;7.53;;;11.80;99.90;;;;;;4988223;28;20495;-81
2021/12/06 13:22:31;;;;;;;63.10;7.78;;;11.80;99.90;;;;;;4970877;28;20055;-82
2021/12/06 13:25:01;;;;;;;57.55;7.57;;;11.80;99.90;;;;;;4976662;28;20054;-80
2021/12/06 13:27:30;;;;;;;46.05;6.80;;;11.80;99.90;;;;;;4976666;28;20479;-82
2021/12/06 13:30:13;;;;;;;48.47;6.55;;;11.80;99.90;;;;;;4976346;28;20455;-81
2021/12/06 13:32:52;;;;;;;40.97;5.93;;;11.90;99.90;;;;;;4977166;28;20093;-81
2021/12/06 13:35:46;;;;;;;40.03;5.22;;;11.80;99.90;;;;;;4984168;28;20463;-81
2021/12/06 13:38:34;;;;;;;32.17;4.80;;;11.80;99.90;;;;;;4983882;28;20046;-83
2021/12/06 13:41:16;;;;;;;28.10;4.18;;;11.80;99.90;;;;;;4974001;28;20505;-82
2021/12/06 13:43:56;;;;;;;27.38;4.03;;;11.70;99.90;;;;;;4986833;28;20055;-82
2021/12/06 13:46:26;;;;;;;32.58;3.70;;;11.70;99.90;;;;;;4986932;28;20058;-80
2021/12/06 13:49:06;;;;;;;27.42;4.45;;;11.70;99.90;;;;;;4987022;28;20057;-81
2021/12/06 13:51:58;;;;;;;23.42;3.53;;;11.70;99.90;;;;;;4965648;28;20052;-82
2021/12/06 13:54:31;;;;;;;32.88;3.85;;;11.70;99.90;;;;;;4978098;28;20046;-82
2021/12/06 13:57:11;;;;;;;33.05;5.15;;;11.80;99.90;;;;;;4981064;28;20051;-82
2021/12/06 13:59:43;;;;;;;37.42;5.40;;;11.80;99.90;;;;;;4985002;28;20050;-82
2021/12/06 14:02:11;;;;;;;34.17;4.53;;;11.80;99.90;;;;;;4974859;28;20066;-82
2021/12/06 14:04:41;;;;;;;33.47;4.30;;;11.80;99.90;;;;;;4972638;28;20050;-82
2021/12/06 14:07:09;;;;;;;30.55;4.97;;;11.70;99.90;;;;;;4974926;28;20091;-81
2021/12/06 14:09:42;;;;;;;31.80;4.82;;;11.70;99.90;;;;;;4983994;28;20093;-82
2021/12/06 14:12:09;;;;;;;30.08;4.72;;;11.60;99.90;;;;;;4980085;28;20051;-82
2021/12/06 14:14:38;;;;;;;32.42;4.25;;;11.50;99.90;;;;;;4959242;28;20101;-81
2021/12/06 14:17:12;;;;;;;30.27;5.68;;;11.50;99.90;;;;;;4974770;28;20051;-81
2021/12/06 14:19:40;;;;;;;28.33;4.65;;;11.50;99.90;;;;;;4972802;28;20054;-82
2021/12/06 14:22:08;;;;;;;34.75;5.50;;;11.50;99.90;;;;;;4971738;28;20125;-82
2021/12/06 14:24:37;;;;;;;30.40;4.55;;;11.50;99.90;;;;;;4976128;28;20046;-82
2021/12/06 14:27:06;;;;;;;38.42;5.10;;;11.50;99.90;;;;;;4975835;28;20089;-83
2021/12/06 14:29:33;;;;;;;29.73;4.57;;;11.40;99.90;;;;;;4974458;28;20074;-82
2021/12/06 14:32:06;;;;;;;27.92;3.00;;;11.20;99.90;;;;;;4987348;28;20066;-82
2021/12/06 14:34:39;;;;;;;23.10;3.67;;;10.90;99.90;;;;;;4972100;28;20447;-83
2021/12/06 14:37:09;;;;;;;26.33;3.33;;;10.80;99.90;;;;;;4990021;28;20054;-82
2021/12/06 14:39:40;;;;;;;27.63;3.78;;;10.60;99.90;;;;;;4976294;28;20097;-82
2021/12/06 14:42:12;;;;;;;20.42;3.00;;;10.50;99.90;;;;;;4975386;28;20047;-83
2021/12/06 14:45:04;;;;;;;19.25;3.15;;;10.40;99.90;;;;;;4975699;28;20058;-83
2021/12/06 14:47:42;;;;;;;27.00;4.55;;;10.40;99.90;;;;;;4974678;28;20046;-82
2021/12/06 14:50:38;;;;;;;26.47;4.53;;;10.40;99.90;;;;;;4956662;28;20099;-82
2021/12/06 14:53:07;;;;;;;21.20;2.78;;;10.30;99.90;;;;;;4972850;28;20516;-81
2021/12/06 14:55:47;;;;;;;25.10;4.25;;;10.30;99.90;;;;;;4971939;28;20046;-81
2021/12/06 14:58:39;;;;;;;29.60;4.00;;;10.30;99.90;;;;;;4971028;28;20078;-81
2021/12/06 15:01:23;;;;;;;34.83;4.93;;;10.30;99.90;;;;;;4974330;28;20055;-81
2021/12/06 15:03:54;;;;;;;27.50;3.83;;;10.40;99.90;;;;;;4985006;28;20043;-81
2021/12/06 15:06:21;;;;;;;28.58;4.13;;;10.40;99.90;;;;;;4959818;28;20054;-82
2021/12/06 15:08:56;;;;;;;32.67;4.22;;;10.40;99.90;;;;;;4976573;28;20052;-80
2021/12/06 15:11:30;;;;;;;26.67;3.72;;;10.40;99.90;;;;;;4982049;28;20523;-82
2021/12/06 15:14:08;;;;;;;18.60;3.00;;;10.40;99.90;;;;;;4987598;28;20046;-82
2021/12/06 15:16:35;;;;;;;29.02;4.18;;;10.40;99.90;;;;;;4986888;28;20503;-81
2021/12/06 15:19:08;;;;;;;32.92;4.53;;;10.40;99.90;;;;;;4976950;28;20097;-82
2021/12/06 15:21:36;;;;;;;27.30;4.32;;;10.40;99.90;;;;;;4958880;28;20086;-82
2021/12/06 15:24:05;;;;;;;30.00;5.07;;;10.50;99.90;;;;;;4978453;28;20049;-84
2021/12/06 15:26:42;;;;;;;30.02;4.20;;;10.40;99.90;;;;;;4976625;28;20042;-82
2021/12/06 15:29:21;;;;;;;25.20;3.78;;;10.40;99.90;;;;;;4959344;28;20085;-82
2021/12/06 15:31:51;;;;;;;;;;;10.40;99.90;;;;;;4978451;28;20122;-81
2021/12/06 15:34:24;;;;;;;25.30;4.28;;;10.40;99.90;;;;;;4976990;28;19929;-81
2021/12/06 15:36:52;;;;;;;27.95;4.00;;;10.40;99.90;;;;;;4969470;28;20098;-83
2021/12/06 15:39:20;;;;;;;28.58;3.80;;;10.40;99.90;;;;;;4980852;28;20042;-83
2021/12/06 15:42:06;;;;;;;26.25;4.18;;;10.50;99.90;;;;;;4982538;28;20042;-84
2021/12/06 15:44:40;;;;;;;29.42;4.28;;;10.50;99.90;;;;;;4978106;28;20522;-84
2021/12/06 15:47:23;;;;;;;32.08;4.25;;;10.50;99.90;;;;;;4960304;28;20050;-84
2021/12/06 15:49:55;;;;;;;29.48;3.58;;;10.40;99.90;;;;;;4967854;28;20144;-82
2021/12/06 15:52:26;;;;;;;23.05;3.53;;;10.40;99.90;;;;;;4974043;28;20050;-83
2021/12/06 15:55:29;;;;;;;24.67;3.15;;;10.30;99.90;;;;;;4958768;28;20120;-81
2021/12/06 15:58:02;;;;;;;26.98;3.63;;;10.20;99.90;;;;;;4886268;29;20061;-82
2021/12/06 16:00:35;;;;;;;29.70;3.72;;;10.20;99.90;;;;;;4884573;29;20141;-81
2021/12/06 16:03:05;;;;;;;22.23;3.20;;;10.10;99.90;;;;;;4884236;29;20534;-83
2021/12/06 16:05:40;;;;;;;25.73;3.58;;;10.10;99.90;;;;;;4883666;29;20052;-82
2021/12/06 16:08:16;;;;;;;27.08;3.60;;;10.10;99.90;;;;;;4884582;29;20056;-82
2021/12/06 16:10:46;;;;;;;27.17;3.00;;;10.00;99.90;;;;;;4882743;29;20057;-83
2021/12/06 16:13:19;;;;;;;21.60;3.05;;;10.00;99.90;;;;;;4885816;29;20220;-81
2021/12/06 16:15:50;;;;;;;27.00;3.65;;;9.90;99.90;;;;;;4879254;29;20075;-82
2021/12/06 16:18:23;;;;;;;28.83;4.07;;;9.90;99.90;;;;;;4884314;29;20094;-81
2021/12/06 16:21:20;;;;;;;24.17;3.05;;;9.80;99.90;;;;;;4883283;29;20048;-83
2021/12/06 16:23:52;;;;;;;29.75;3.72;;;9.80;99.90;;;;;;4881212;29;20201;-82
2021/12/06 16:26:21;;;;;;;26.90;4.10;;;9.70;99.90;;;;;;4882000;29;20044;-80
2021/12/06 16:28:50;;;;;;;;;;;9.70;99.90;;;;;;4871776;29;20761;-83
2021/12/06 16:31:18;;;;;;;;;;;9.60;99.90;;;;;;4882047;29;19927;-79
2021/12/06 16:33:49;;;;;;;31.57;4.53;;;9.60;99.90;;;;;;4928998;28;19925;-82
2021/12/06 16:36:34;;;;;;;29.88;3.38;;;9.50;99.90;;;;;;4957930;28;20293;-84
2021/12/06 16:39:28;;;;;;;33.90;5.03;;;9.50;99.90;;;;;;4962977;28;20137;-84
2021/12/06 16:42:13;;;;;;;31.85;3.63;;;9.50;99.90;;;;;;4975563;28;20050;-83
2021/12/06 16:44:44;;;;;;;29.48;4.40;;;9.50;99.90;;;;;;4961861;28;20053;-83
2021/12/06 16:47:16;;;;;;;28.52;4.28;;;9.40;99.90;;;;;;4981348;28;20046;-81
2021/12/06 16:49:56;;;;;;;31.95;4.07;;;9.40;99.90;;;;;;4971952;28;20041;-84
2021/12/06 16:52:48;;;;;;;32.00;4.38;;;9.40;99.90;;;;;;4968475;28;20054;-84
2021/12/06 16:55:31;;;;;;;30.02;3.95;;;9.40;99.90;;;;;;4968085;28;20050;-83
2021/12/06 16:58:08;;;;;;;33.92;5.32;;;9.40;99.90;;;;;;4954490;28;20058;-83
2021/12/06 17:00:49;;;;;;;31.17;4.07;;;9.30;99.90;;;;;;4969566;28;20073;-83
2021/12/06 17:03:26;;;;;;;47.22;8.00;;;9.30;99.90;;;;;;4973693;28;20054;-83
2021/12/06 17:06:03;;;;;;;33.88;4.95;;;9.30;99.90;;;;;;4965943;28;20138;-82
2021/12/06 17:08:36;;;;;;;34.15;4.43;;;9.20;99.90;;;;;;4954210;28;20152;-83
2021/12/06 17:11:10;;;;;;;34.45;4.55;;;9.30;99.90;;;;;;4957744;28;20384;-83
2021/12/06 17:13:43;;;;;;;34.55;4.03;;;9.30;99.90;;;;;;4972445;28;20054;-84
2021/12/06 17:16:30;;;;;;;32.40;4.72;;;9.20;99.90;;;;;;4969635;28;20543;-81
2021/12/06 17:19:20;;;;;;;29.67;3.55;;;9.30;99.90;;;;;;4973341;28;20101;-81
2021/12/06 17:22:15;;;;;;;26.38;3.70;;;9.30;99.90;;;;;;4974274;28;20050;-82
2021/12/06 17:24:48;;;;;;;36.13;4.35;;;9.30;99.90;;;;;;4969984;28;20043;-82
2021/12/06 17:27:31;;;;;;;29.35;4.20;;;9.30;99.90;;;;;;4970410;28;20069;-81
2021/12/06 17:29:59;;;;;;;23.50;4.28;;;9.20;99.90;;;;;;4972236;28;20046;-81
2021/12/06 17:32:27;;;;;;;23.75;4.00;;;9.20;99.90;;;;;;4971840;28;20690;-82
2021/12/06 17:34:54;;;;;;;31.27;4.37;;;9.20;99.90;;;;;;4974760;28;20043;-83
2021/12/06 17:37:22;;;;;;;29.67;3.92;;;9.20;99.90;;;;;;4980841;28;20294;-83
2021/12/06 17:39:50;;;;;;;30.73;3.78;;;9.20;99.90;;;;;;4974149;28;20050;-82
2021/12/06 17:42:22;;;;;;;26.33;5.35;;;9.20;99.90;;;;;;4975840;28;20049;-83
2021/12/06 17:44:53;;;;;;;24.17;3.42;;;9.20;99.90;;;;;;4973087;28;20058;-82
2021/12/06 17:47:26;;;;;;;31.10;3.90;;;9.20;99.90;;;;;;4970549;28;20051;-80
2021/12/06 17:49:53;;;;;;;36.45;4.18;;;9.20;99.90;;;;;;4970644;28;20097;-80
2021/12/06 17:52:20;;;;;;;24.25;4.15;;;9.20;99.90;;;;;;4970391;28;20047;-80
2021/12/06 17:54:48;;;;;;;24.48;3.83;;;9.10;99.90;;;;;;4951588;28;20062;-83
2021/12/06 17:57:30;;;;;;;26.98;3.35;;;9.10;99.90;;;;;;4955140;28;20097;-79
2021/12/06 17:59:59;;;;;;;27.17;3.38;;;9.10;99.90;;;;;;4969245;28;20578;-81
2021/12/06 18:02:26;;;;;;;22.50;3.33;;;9.10;99.90;;;;;;4972612;28;20125;-81
2021/12/06 18:04:53;;;;;;;36.13;5.10;;;9.10;99.90;;;;;;4970786;28;20053;-81
2021/12/06 18:07:20;;;;;;;25.75;3.17;;;9.10;99.90;;;;;;4968244;28;20043;-81
2021/12/06 18:09:47;;;;;;;23.63;3.40;;;9.10;99.90;;;;;;4974484;28;20515;-82
2021/12/06 18:12:15;;;;;;;22.80;4.63;;;9.10;99.90;;;;;;4959944;28;20609;-82
2021/12/06 18:14:43;;;;;;;25.00;3.28;;;9.10;99.90;;;;;;4974381;28;20113;-81
2021/12/06 18:17:12;;;;;;;;;;;9.10;99.90;;;;;;4981634;28;20054;-83
2021/12/06 18:19:40;;;;;;;15.38;3.15;;;9.10;99.90;;;;;;4974667;28;19930;-81
2021/12/06 18:22:09;;;;;;;;;;;9.10;99.90;;;;;;4980747;28;20529;-82
2021/12/06 18:24:36;;;;;;;20.85;3.40;;;9.00;99.90;;;;;;4974863;28;19922;-80
2021/12/06 18:27:05;;;;;;;26.02;3.78;;;9.10;99.90;;;;;;4973317;28;20108;-81
2021/12/06 18:29:32;;;;;;;23.42;3.42;;;9.00;99.90;;;;;;4980569;28;20053;-81
2021/12/06 18:31:59;;;;;;;27.73;3.88;;;9.00;99.90;;;;;;4977657;28;20054;-81
2021/12/06 18:34:27;;;;;;;21.58;4.50;;;9.00;99.90;;;;;;4957513;28;20043;-81
2021/12/06 18:36:54;;;;;;;26.02;3.83;;;9.00;99.90;;;;;;4968476;28;20054;-81
2021/12/06 18:39:28;;;;;;;17.95;3.20;;;9.00;99.90;;;;;;4975014;28;20047;-81
2021/12/06 18:41:55;;;;;;;20.20;3.63;;;9.00;99.90;;;;;;4956834;28;20068;-79
2021/12/06 18:46:58;;;;;;;21.20;3.63;;;8.90;99.90;;;;;;4970385;28;20447;-81
2021/12/06 18:49:27;;;;;;;20.30;4.95;;;8.90;99.90;;;;;;4970946;28;20043;-81
2021/12/06 18:51:56;;;;;;;18.23;3.20;;;8.90;99.90;;;;;;4971292;28;20117;-79
2021/12/06 18:54:23;;;;;;;25.52;3.33;;;8.90;99.90;;;;;;4972700;28;20046;-81
2021/12/06 18:56:50;;;;;;;21.23;3.22;;;8.90;99.90;;;;;;4972359;28;20051;-80
2021/12/06 18:59:17;;;;;;;16.10;3.58;;;8.90;99.90;;;;;;4950129;28;20113;-81
2021/12/06 19:01:44;;;;;;;22.85;2.55;;;8.90;99.90;;;;;;4968189;28;20112;-81
2021/12/06 19:04:12;;;;;;;25.23;5.07;;;8.90;99.90;;;;;;4972171;28;20051;-81
2021/12/06 19:06:39;;;;;;;23.50;3.72;;;8.90;99.90;;;;;;4970900;28;20566;-81
2021/12/06 19:09:11;;;;;;;24.85;2.92;;;8.90;99.90;;;;;;4973274;28;20141;-82
2021/12/06 19:11:38;;;;;;;21.50;3.13;;;8.90;99.90;;;;;;4969345;28;20113;-81
2021/12/06 19:14:25;;;;;;;19.88;4.13;;;8.90;99.90;;;;;;4968772;28;20116;-82
2021/12/06 19:16:56;;;;;;;22.50;4.57;;;8.90;99.90;;;;;;4974618;28;20051;-82
2021/12/06 19:19:23;;;;;;;23.15;3.15;;;9.00;99.90;;;;;;4972949;28;22540;-82
2021/12/06 19:21:50;;;;;;;16.88;3.08;;;9.00;99.90;;;;;;4972232;28;20106;-80
2021/12/06 19:24:17;;;;;;;22.70;2.75;;;9.00;99.90;;;;;;4966074;28;20121;-80
2021/12/06 19:26:44;;;;;;;25.45;3.60;;;9.00;99.90;;;;;;4952898;28;20050;-81
2021/12/06 19:29:12;;;;;;;26.25;3.40;;;9.00;99.90;;;;;;4918587;28;20154;-83
2021/12/06 19:31:43;;;;;;;19.75;3.15;;;9.00;99.90;;;;;;4945052;28;20065;-82
2021/12/06 19:34:20;;;;;;;14.38;2.50;;;9.00;99.90;;;;;;4966952;28;20052;-82
2021/12/06 19:36:47;;;;;;;26.23;3.88;;;9.00;99.90;;;;;;4973252;28;20050;-83
2021/12/06 19:39:35;;;;;;;18.40;2.65;;;9.00;99.90;;;;;;4975804;28;20046;-83
2021/12/06 19:42:03;;;;;;;25.50;2.95;;;9.00;99.90;;;;;;4977436;28;20074;-81
2021/12/06 19:44:34;;;;;;;40.03;10.68;;;9.00;99.90;;;;;;4941096;28;20912;-83
2021/12/06 19:47:05;;;;;;;30.38;4.45;;;9.00;99.90;;;;;;4976970;28;20042;-82
2021/12/06 19:49:32;;;;;;;27.05;4.95;;;9.00;99.90;;;;;;4983075;28;20157;-83
2021/12/06 19:52:00;;;;;;;27.52;3.78;;;9.00;99.90;;;;;;4980153;28;20050;-83
2021/12/06 19:54:27;;;;;;;16.58;4.57;;;8.90;99.90;;;;;;4967198;28;20400;-84
2021/12/06 19:56:56;;;;;;;29.33;6.82;;;8.90;99.90;;;;;;4975544;28;20047;-84
2021/12/06 19:59:23;;;;;;;24.00;3.13;;;8.90;99.90;;;;;;4971077;28;20049;-82
2021/12/06 20:01:59;;;;;;;29.40;2.60;;;8.90;99.90;;;;;;4958904;28;20127;-82
2021/12/06 20:04:28;;;;;;;21.88;2.72;;;8.90;99.90;;;;;;4954639;28;20050;-83
2021/12/06 20:06:59;;;;;;;10.98;2.08;;;8.80;99.90;;;;;;4955346;28;20098;-82
2021/12/06 20:09:34;;;;;;;25.35;3.13;;;8.80;99.90;;;;;;4945032;28;20121;-83
2021/12/06 20:12:01;;;;;;;20.40;2.83;;;8.80;99.90;;;;;;4947731;28;20055;-83
2021/12/06 20:14:28;;;;;;;20.60;2.30;;;8.80;99.90;;;;;;4954566;28;20045;-82
2021/12/06 20:16:58;;;;;;;17.73;2.08;;;8.80;99.90;;;;;;4949873;28;20039;-83
2021/12/06 20:19:25;;;;;;;14.00;2.10;;;8.70;99.90;;;;;;4955290;28;20519;-82